sensor_id;sensor_type;location;lat;lon;timestamp;P1;P2;P0
73973;PMS5003;62336;-26.094;27.994;2023-08-17T00:01:32;32;29;
73973;PMS5003;62336;-26.094;27.994;2023-08-17T00:03:57;33;31;
73973;PMS5003;62336;-26.094;27.994;2023-08-17T00:06:23;33;30;
73973;PMS5003;62336;-26.094;27.994;2023-08-17T00:08:48;29;28;
73973;PMS5003;62336;-26.094;27.994;2023-08-17T00:11:14;35;32;
73973;PMS5003;62336;-26.094;27.994;2023-08-17T00:13:39;31;31;
73973;PMS5003;62336;-26.094;27.994;2023-08-17T00:16:04;33;31;
73973;PMS5003;62336;-26.094;27.994;2023-08-17T00:18:29;32;28;
73973;PMS5003;62336;-26.094;27.994;2023-08-17T00:20:55;36;34;
73973;PMS5003;62336;-26.094;27.994;2023-08-17T00:23:20;33;32;
73973;PMS5003;62336;-26.094;27.994;2023-08-17T00:25:46;32;27;
73973;PMS5003;62336;-26.094;27.994;2023-08-17T00:28:11;33;29;
73973;PMS5003;62336;-26.094;27.994;2023-08-17T00:30:37;30;28;
73973;PMS5003;62336;-26.094;27.994;2023-08-17T00:33:02;36;35;
73973;PMS5003;62336;-26.094;27.994;2023-08-17T00:35:27;31;29;
73973;PMS5003;62336;-26.094;27.994;2023-08-17T00:37:53;32;30;
73973;PMS5003;62336;-26.094;27.994;2023-08-17T00:40:19;35;33;
73973;PMS5003;62336;-26.094;27.994;2023-08-17T00:42:44;33;31;
73973;PMS5003;62336;-26.094;27.994;2023-08-17T00:45:09;32;30;
73973;PMS5003;62336;-26.094;27.994;2023-08-17T00:47:35;36;35;
73973;PMS5003;62336;-26.094;27.994;2023-08-17T00:50:01;30;29;
73973;PMS5003;62336;-26.094;27.994;2023-08-17T00:52:27;34;31;
73973;PMS5003;62336;-26.094;27.994;2023-08-17T00:54:52;30;29;
73973;PMS5003;62336;-26.094;27.994;2023-08-17T00:57:17;32;31;
73973;PMS5003;62336;-26.094;27.994;2023-08-17T00:59:43;30;30;
73973;PMS5003;62336;-26.094;27.994;2023-08-17T01:02:09;37;34;
73973;PMS5003;62336;-26.094;27.994;2023-08-17T01:04:34;37;36;
73973;PMS5003;62336;-26.094;27.994;2023-08-17T01:06:59;30;30;
73973;PMS5003;62336;-26.094;27.994;2023-08-17T01:09:24;34;33;
73973;PMS5003;62336;-26.094;27.994;2023-08-17T01:11:53;32;32;
73973;PMS5003;62336;-26.094;27.994;2023-08-17T01:14:17;29;29;
73973;PMS5003;62336;-26.094;27.994;2023-08-17T01:16:43;38;34;
73973;PMS5003;62336;-26.094;27.994;2023-08-17T01:19:08;36;35;
73973;PMS5003;62336;-26.094;27.994;2023-08-17T01:21:35;37;34;
73973;PMS5003;62336;-26.094;27.994;2023-08-17T01:23:58;33;29;
73973;PMS5003;62336;-26.094;27.994;2023-08-17T01:26:24;34;32;
73973;PMS5003;62336;-26.094;27.994;2023-08-17T01:28:49;38;35;
73973;PMS5003;62336;-26.094;27.994;2023-08-17T01:31:17;34;33;
73973;PMS5003;62336;-26.094;27.994;2023-08-17T01:33:40;30;28;
73973;PMS5003;62336;-26.094;27.994;2023-08-17T01:36:06;31;30;
73973;PMS5003;62336;-26.094;27.994;2023-08-17T01:38:31;37;35;
73973;PMS5003;62336;-26.094;27.994;2023-08-17T01:40:56;36;32;
73973;PMS5003;62336;-26.094;27.994;2023-08-17T01:43:21;36;35;
73973;PMS5003;62336;-26.094;27.994;2023-08-17T01:45:46;40;37;
73973;PMS5003;62336;-26.094;27.994;2023-08-17T01:48:12;37;36;
73973;PMS5003;62336;-26.094;27.994;2023-08-17T01:50:37;31;29;
73973;PMS5003;62336;-26.094;27.994;2023-08-17T01:53:03;35;32;
73973;PMS5003;62336;-26.094;27.994;2023-08-17T01:55:28;38;34;
73973;PMS5003;62336;-26.094;27.994;2023-08-17T01:57:53;33;32;
73973;PMS5003;62336;-26.094;27.994;2023-08-17T02:00:19;39;35;
73973;PMS5003;62336;-26.094;27.994;2023-08-17T02:02:44;35;32;
73973;PMS5003;62336;-26.094;27.994;2023-08-17T02:05:10;33;31;
73973;PMS5003;62336;-26.094;27.994;2023-08-17T02:07:35;37;35;
73973;PMS5003;62336;-26.094;27.994;2023-08-17T02:10:00;37;36;
73973;PMS5003;62336;-26.094;27.994;2023-08-17T02:12:25;41;39;
73973;PMS5003;62336;-26.094;27.994;2023-08-17T02:14:51;34;32;
73973;PMS5003;62336;-26.094;27.994;2023-08-17T02:17:18;41;39;
73973;PMS5003;62336;-26.094;27.994;2023-08-17T02:19:41;37;36;
73973;PMS5003;62336;-26.094;27.994;2023-08-17T02:22:07;36;34;
73973;PMS5003;62336;-26.094;27.994;2023-08-17T02:24:31;41;37;
73973;PMS5003;62336;-26.094;27.994;2023-08-17T02:26:57;37;35;
73973;PMS5003;62336;-26.094;27.994;2023-08-17T02:29:23;41;36;
73973;PMS5003;62336;-26.094;27.994;2023-08-17T02:31:48;45;38;
73973;PMS5003;62336;-26.094;27.994;2023-08-17T02:34:13;35;33;
73973;PMS5003;62336;-26.094;27.994;2023-08-17T02:36:39;34;33;
73973;PMS5003;62336;-26.094;27.994;2023-08-17T02:39:05;34;33;
73973;PMS5003;62336;-26.094;27.994;2023-08-17T02:41:30;35;34;
73973;PMS5003;62336;-26.094;27.994;2023-08-17T02:43:55;35;35;
73973;PMS5003;62336;-26.094;27.994;2023-08-17T02:46:21;46;42;
73973;PMS5003;62336;-26.094;27.994;2023-08-17T02:48:46;36;34;
73973;PMS5003;62336;-26.094;27.994;2023-08-17T02:51:12;46;43;
73973;PMS5003;62336;-26.094;27.994;2023-08-17T02:53:38;41;40;
73973;PMS5003;62336;-26.094;27.994;2023-08-17T02:56:03;42;40;
73973;PMS5003;62336;-26.094;27.994;2023-08-17T02:58:28;40;37;
73973;PMS5003;62336;-26.094;27.994;2023-08-17T03:00:54;35;34;
73973;PMS5003;62336;-26.094;27.994;2023-08-17T03:03:19;44;39;
73973;PMS5003;62336;-26.094;27.994;2023-08-17T03:05:45;36;34;
73973;PMS5003;62336;-26.094;27.994;2023-08-17T03:08:10;36;34;
73973;PMS5003;62336;-26.094;27.994;2023-08-17T03:10:36;42;40;
73973;PMS5003;62336;-26.094;27.994;2023-08-17T03:13:01;45;44;
73973;PMS5003;62336;-26.094;27.994;2023-08-17T03:15:27;38;35;
73973;PMS5003;62336;-26.094;27.994;2023-08-17T03:17:52;36;33;
73973;PMS5003;62336;-26.094;27.994;2023-08-17T03:20:17;40;40;
73973;PMS5003;62336;-26.094;27.994;2023-08-17T03:22:43;43;36;
73973;PMS5003;62336;-26.094;27.994;2023-08-17T03:25:09;42;39;
73973;PMS5003;62336;-26.094;27.994;2023-08-17T03:27:34;49;47;
73973;PMS5003;62336;-26.094;27.994;2023-08-17T03:30:00;38;38;
73973;PMS5003;62336;-26.094;27.994;2023-08-17T03:32:25;45;42;
73973;PMS5003;62336;-26.094;27.994;2023-08-17T03:34:50;46;45;
73973;PMS5003;62336;-26.094;27.994;2023-08-17T03:37:16;36;34;
73973;PMS5003;62336;-26.094;27.994;2023-08-17T03:39:41;37;37;
73973;PMS5003;62336;-26.094;27.994;2023-08-17T03:42:07;37;35;
73973;PMS5003;62336;-26.094;27.994;2023-08-17T03:44:32;39;38;
73973;PMS5003;62336;-26.094;27.994;2023-08-17T03:46:57;39;38;
73973;PMS5003;62336;-26.094;27.994;2023-08-17T03:49:23;36;33;
73973;PMS5003;62336;-26.094;27.994;2023-08-17T03:51:49;43;41;
73973;PMS5003;62336;-26.094;27.994;2023-08-17T03:54:15;42;40;
73973;PMS5003;62336;-26.094;27.994;2023-08-17T03:56:40;44;41;
73973;PMS5003;62336;-26.094;27.994;2023-08-17T03:59:05;35;35;
73973;PMS5003;62336;-26.094;27.994;2023-08-17T04:01:31;36;34;
73973;PMS5003;62336;-26.094;27.994;2023-08-17T04:03:56;43;36;
73973;PMS5003;62336;-26.094;27.994;2023-08-17T04:06:23;41;38;
73973;PMS5003;62336;-26.094;27.994;2023-08-17T04:08:47;43;41;
73973;PMS5003;62336;-26.094;27.994;2023-08-17T04:11:12;39;37;
73973;PMS5003;62336;-26.094;27.994;2023-08-17T04:13:38;39;36;
73973;PMS5003;62336;-26.094;27.994;2023-08-17T04:16:03;44;40;
73973;PMS5003;62336;-26.094;27.994;2023-08-17T04:18:29;41;40;
73973;PMS5003;62336;-26.094;27.994;2023-08-17T04:20:53;37;35;
73973;PMS5003;62336;-26.094;27.994;2023-08-17T04:23:19;37;35;
73973;PMS5003;62336;-26.094;27.994;2023-08-17T04:25:46;40;38;
73973;PMS5003;62336;-26.094;27.994;2023-08-17T04:28:10;46;41;
73973;PMS5003;62336;-26.094;27.994;2023-08-17T04:30:37;40;38;
73973;PMS5003;62336;-26.094;27.994;2023-08-17T04:33:00;41;41;
73973;PMS5003;62336;-26.094;27.994;2023-08-17T04:35:26;40;39;
73973;PMS5003;62336;-26.094;27.994;2023-08-17T04:37:52;106;100;
73973;PMS5003;62336;-26.094;27.994;2023-08-17T04:40:17;72;66;
73973;PMS5003;62336;-26.094;27.994;2023-08-17T04:42:43;66;62;
73973;PMS5003;62336;-26.094;27.994;2023-08-17T04:45:09;49;46;
73973;PMS5003;62336;-26.094;27.994;2023-08-17T04:47:34;42;39;
73973;PMS5003;62336;-26.094;27.994;2023-08-17T04:50:00;43;40;
73973;PMS5003;62336;-26.094;27.994;2023-08-17T04:52:25;43;41;
73973;PMS5003;62336;-26.094;27.994;2023-08-17T04:54:50;47;39;
73973;PMS5003;62336;-26.094;27.994;2023-08-17T04:57:15;42;39;
73973;PMS5003;62336;-26.094;27.994;2023-08-17T04:59:41;44;43;
73973;PMS5003;62336;-26.094;27.994;2023-08-17T05:02:06;42;39;
73973;PMS5003;62336;-26.094;27.994;2023-08-17T05:04:32;52;49;
73973;PMS5003;62336;-26.094;27.994;2023-08-17T05:06:57;46;43;
73973;PMS5003;62336;-26.094;27.994;2023-08-17T05:09:22;45;44;
73973;PMS5003;62336;-26.094;27.994;2023-08-17T05:11:47;51;49;
73973;PMS5003;62336;-26.094;27.994;2023-08-17T05:14:12;43;41;
73973;PMS5003;62336;-26.094;27.994;2023-08-17T05:16:38;71;67;
73973;PMS5003;62336;-26.094;27.994;2023-08-17T05:19:04;77;71;
73973;PMS5003;62336;-26.094;27.994;2023-08-17T05:21:29;48;45;
73973;PMS5003;62336;-26.094;27.994;2023-08-17T05:23:55;49;46;
73973;PMS5003;62336;-26.094;27.994;2023-08-17T05:26:20;60;50;
73973;PMS5003;62336;-26.094;27.994;2023-08-17T05:28:45;48;47;
73973;PMS5003;62336;-26.094;27.994;2023-08-17T05:31:11;50;46;
73973;PMS5003;62336;-26.094;27.994;2023-08-17T05:33:37;55;50;
73973;PMS5003;62336;-26.094;27.994;2023-08-17T05:36:02;48;45;
73973;PMS5003;62336;-26.094;27.994;2023-08-17T05:38:27;45;43;
73973;PMS5003;62336;-26.094;27.994;2023-08-17T05:40:54;51;46;
73973;PMS5003;62336;-26.094;27.994;2023-08-17T05:43:18;51;45;
73973;PMS5003;62336;-26.094;27.994;2023-08-17T05:45:43;46;44;
73973;PMS5003;62336;-26.094;27.994;2023-08-17T05:48:09;50;47;
73973;PMS5003;62336;-26.094;27.994;2023-08-17T05:50:34;50;46;
73973;PMS5003;62336;-26.094;27.994;2023-08-17T05:52:59;73;68;
73973;PMS5003;62336;-26.094;27.994;2023-08-17T05:55:26;54;50;
73973;PMS5003;62336;-26.094;27.994;2023-08-17T05:57:51;41;38;
73973;PMS5003;62336;-26.094;27.994;2023-08-17T06:00:16;43;42;
73973;PMS5003;62336;-26.094;27.994;2023-08-17T06:02:42;48;45;
73973;PMS5003;62336;-26.094;27.994;2023-08-17T06:05:07;47;46;
73973;PMS5003;62336;-26.094;27.994;2023-08-17T06:07:34;54;49;
73973;PMS5003;62336;-26.094;27.994;2023-08-17T06:09:58;48;43;
73973;PMS5003;62336;-26.094;27.994;2023-08-17T06:12:23;52;48;
73973;PMS5003;62336;-26.094;27.994;2023-08-17T06:14:49;54;46;
73973;PMS5003;62336;-26.094;27.994;2023-08-17T06:17:14;52;47;
73973;PMS5003;62336;-26.094;27.994;2023-08-17T06:19:40;51;49;
73973;PMS5003;62336;-26.094;27.994;2023-08-17T06:22:05;50;47;
73973;PMS5003;62336;-26.094;27.994;2023-08-17T06:24:31;50;49;
73973;PMS5003;62336;-26.094;27.994;2023-08-17T06:26:56;50;49;
73973;PMS5003;62336;-26.094;27.994;2023-08-17T06:29:21;46;42;
73973;PMS5003;62336;-26.094;27.994;2023-08-17T06:31:47;56;53;
73973;PMS5003;62336;-26.094;27.994;2023-08-17T06:34:12;45;44;
73973;PMS5003;62336;-26.094;27.994;2023-08-17T06:36:38;69;64;
73973;PMS5003;62336;-26.094;27.994;2023-08-17T06:39:04;61;59;
73973;PMS5003;62336;-26.094;27.994;2023-08-17T06:41:30;49;45;
73973;PMS5003;62336;-26.094;27.994;2023-08-17T06:43:55;49;47;
73973;PMS5003;62336;-26.094;27.994;2023-08-17T06:46:20;49;45;
73973;PMS5003;62336;-26.094;27.994;2023-08-17T06:48:45;43;42;
73973;PMS5003;62336;-26.094;27.994;2023-08-17T06:51:11;49;45;
73973;PMS5003;62336;-26.094;27.994;2023-08-17T06:53:37;48;47;
73973;PMS5003;62336;-26.094;27.994;2023-08-17T06:56:02;41;41;
73973;PMS5003;62336;-26.094;27.994;2023-08-17T06:58:27;46;42;
73973;PMS5003;62336;-26.094;27.994;2023-08-17T07:00:53;49;46;
73973;PMS5003;62336;-26.094;27.994;2023-08-17T07:03:18;47;44;
73973;PMS5003;62336;-26.094;27.994;2023-08-17T07:05:43;50;46;
73973;PMS5003;62336;-26.094;27.994;2023-08-17T07:08:09;48;46;
73973;PMS5003;62336;-26.094;27.994;2023-08-17T07:10:34;45;43;
73973;PMS5003;62336;-26.094;27.994;2023-08-17T07:12:59;44;39;
73973;PMS5003;62336;-26.094;27.994;2023-08-17T07:15:26;47;45;
73973;PMS5003;62336;-26.094;27.994;2023-08-17T07:17:51;45;43;
73973;PMS5003;62336;-26.094;27.994;2023-08-17T07:20:16;43;41;
73973;PMS5003;62336;-26.094;27.994;2023-08-17T07:22:41;50;47;
73973;PMS5003;62336;-26.094;27.994;2023-08-17T07:25:07;52;48;
73973;PMS5003;62336;-26.094;27.994;2023-08-17T07:27:32;41;38;
73973;PMS5003;62336;-26.094;27.994;2023-08-17T07:29:57;48;43;
73973;PMS5003;62336;-26.094;27.994;2023-08-17T07:32:23;39;39;
73973;PMS5003;62336;-26.094;27.994;2023-08-17T07:34:48;46;43;
73973;PMS5003;62336;-26.094;27.994;2023-08-17T07:37:14;44;44;
73973;PMS5003;62336;-26.094;27.994;2023-08-17T07:39:39;41;41;
73973;PMS5003;62336;-26.094;27.994;2023-08-17T07:42:05;41;41;
73973;PMS5003;62336;-26.094;27.994;2023-08-17T07:44:31;44;43;
73973;PMS5003;62336;-26.094;27.994;2023-08-17T07:46:56;40;39;
73973;PMS5003;62336;-26.094;27.994;2023-08-17T07:49:21;42;42;
73973;PMS5003;62336;-26.094;27.994;2023-08-17T07:51:47;47;45;
73973;PMS5003;62336;-26.094;27.994;2023-08-17T07:54:12;46;45;
73973;PMS5003;62336;-26.094;27.994;2023-08-17T07:56:38;48;45;
73973;PMS5003;62336;-26.094;27.994;2023-08-17T07:59:04;51;47;
73973;PMS5003;62336;-26.094;27.994;2023-08-17T08:01:29;58;50;
73973;PMS5003;62336;-26.094;27.994;2023-08-17T08:03:54;57;53;
73973;PMS5003;62336;-26.094;27.994;2023-08-17T08:06:20;63;59;
73973;PMS5003;62336;-26.094;27.994;2023-08-17T08:08:46;62;58;
73973;PMS5003;62336;-26.094;27.994;2023-08-17T08:11:11;64;61;
73973;PMS5003;62336;-26.094;27.994;2023-08-17T08:13:36;64;63;
73973;PMS5003;62336;-26.094;27.994;2023-08-17T08:16:01;75;69;
73973;PMS5003;62336;-26.094;27.994;2023-08-17T08:18:26;67;62;
73973;PMS5003;62336;-26.094;27.994;2023-08-17T08:20:53;63;61;
73973;PMS5003;62336;-26.094;27.994;2023-08-17T08:23:18;77;64;
73973;PMS5003;62336;-26.094;27.994;2023-08-17T08:25:43;66;56;
73973;PMS5003;62336;-26.094;27.994;2023-08-17T08:28:09;53;50;
73973;PMS5003;62336;-26.094;27.994;2023-08-17T08:30:34;47;46;
73973;PMS5003;62336;-26.094;27.994;2023-08-17T08:32:59;75;66;
73973;PMS5003;62336;-26.094;27.994;2023-08-17T08:35:25;48;46;
73973;PMS5003;62336;-26.094;27.994;2023-08-17T08:37:50;42;37;
73973;PMS5003;62336;-26.094;27.994;2023-08-17T08:40:15;38;36;
73973;PMS5003;62336;-26.094;27.994;2023-08-17T08:42:41;35;34;
73973;PMS5003;62336;-26.094;27.994;2023-08-17T08:45:07;43;40;
73973;PMS5003;62336;-26.094;27.994;2023-08-17T08:47:32;63;60;
73973;PMS5003;62336;-26.094;27.994;2023-08-17T08:49:58;41;40;
73973;PMS5003;62336;-26.094;27.994;2023-08-17T08:52:23;37;36;
73973;PMS5003;62336;-26.094;27.994;2023-08-17T08:54:49;40;37;
73973;PMS5003;62336;-26.094;27.994;2023-08-17T08:57:14;44;43;
73973;PMS5003;62336;-26.094;27.994;2023-08-17T08:59:39;46;44;
73973;PMS5003;62336;-26.094;27.994;2023-08-17T09:02:04;46;45;
73973;PMS5003;62336;-26.094;27.994;2023-08-17T09:04:30;44;42;
73973;PMS5003;62336;-26.094;27.994;2023-08-17T09:06:55;43;39;
73973;PMS5003;62336;-26.094;27.994;2023-08-17T09:09:20;46;41;
73973;PMS5003;62336;-26.094;27.994;2023-08-17T09:11:46;43;41;
73973;PMS5003;62336;-26.094;27.994;2023-08-17T09:14:11;43;41;
73973;PMS5003;62336;-26.094;27.994;2023-08-17T09:16:36;37;36;
73973;PMS5003;62336;-26.094;27.994;2023-08-17T09:19:02;45;44;
73973;PMS5003;62336;-26.094;27.994;2023-08-17T09:21:31;43;41;
73973;PMS5003;62336;-26.094;27.994;2023-08-17T09:23:53;46;45;
73973;PMS5003;62336;-26.094;27.994;2023-08-17T09:26:19;58;56;
73973;PMS5003;62336;-26.094;27.994;2023-08-17T09:28:44;61;56;
73973;PMS5003;62336;-26.094;27.994;2023-08-17T09:31:09;60;58;
73973;PMS5003;62336;-26.094;27.994;2023-08-17T09:33:35;56;54;
73973;PMS5003;62336;-26.094;27.994;2023-08-17T09:36:00;64;59;
73973;PMS5003;62336;-26.094;27.994;2023-08-17T09:38:26;60;56;
73973;PMS5003;62336;-26.094;27.994;2023-08-17T09:40:51;69;63;
73973;PMS5003;62336;-26.094;27.994;2023-08-17T09:43:17;60;58;
73973;PMS5003;62336;-26.094;27.994;2023-08-17T09:45:43;64;59;
73973;PMS5003;62336;-26.094;27.994;2023-08-17T09:48:08;63;61;
73973;PMS5003;62336;-26.094;27.994;2023-08-17T09:50:32;61;56;
73973;PMS5003;62336;-26.094;27.994;2023-08-17T09:52:57;55;50;
73973;PMS5003;62336;-26.094;27.994;2023-08-17T09:55:23;58;54;
73973;PMS5003;62336;-26.094;27.994;2023-08-17T09:57:48;59;58;
73973;PMS5003;62336;-26.094;27.994;2023-08-17T10:00:14;60;56;
73973;PMS5003;62336;-26.094;27.994;2023-08-17T10:02:39;60;58;
73973;PMS5003;62336;-26.094;27.994;2023-08-17T10:05:05;58;55;
73973;PMS5003;62336;-26.094;27.994;2023-08-17T10:07:30;52;49;
73973;PMS5003;62336;-26.094;27.994;2023-08-17T10:10:00;49;48;
73973;PMS5003;62336;-26.094;27.994;2023-08-17T10:12:20;41;38;
73973;PMS5003;62336;-26.094;27.994;2023-08-17T10:14:48;39;38;
73973;PMS5003;62336;-26.094;27.994;2023-08-17T10:17:12;38;37;
73973;PMS5003;62336;-26.094;27.994;2023-08-17T10:19:40;46;43;
73973;PMS5003;62336;-26.094;27.994;2023-08-17T10:22:06;42;40;
73973;PMS5003;62336;-26.094;27.994;2023-08-17T10:24:29;40;38;
73973;PMS5003;62336;-26.094;27.994;2023-08-17T10:26:54;38;36;
73973;PMS5003;62336;-26.094;27.994;2023-08-17T10:29:20;38;36;
73973;PMS5003;62336;-26.094;27.994;2023-08-17T10:31:45;37;36;
73973;PMS5003;62336;-26.094;27.994;2023-08-17T10:34:11;44;40;
73973;PMS5003;62336;-26.094;27.994;2023-08-17T10:36:36;38;37;
73973;PMS5003;62336;-26.094;27.994;2023-08-17T10:41:28;44;40;
73973;PMS5003;62336;-26.094;27.994;2023-08-17T10:43:53;37;35;
73973;PMS5003;62336;-26.094;27.994;2023-08-17T10:46:19;35;34;
73973;PMS5003;62336;-26.094;27.994;2023-08-17T10:48:44;38;36;
73973;PMS5003;62336;-26.094;27.994;2023-08-17T10:51:10;35;33;
73973;PMS5003;62336;-26.094;27.994;2023-08-17T10:53:36;33;32;
73973;PMS5003;62336;-26.094;27.994;2023-08-17T10:56:00;35;34;
73973;PMS5003;62336;-26.094;27.994;2023-08-17T10:58:25;38;37;
73973;PMS5003;62336;-26.094;27.994;2023-08-17T11:00:54;35;34;
73973;PMS5003;62336;-26.094;27.994;2023-08-17T11:03:17;38;35;
73973;PMS5003;62336;-26.094;27.994;2023-08-17T11:05:42;38;33;
73973;PMS5003;62336;-26.094;27.994;2023-08-17T11:08:08;33;32;
73973;PMS5003;62336;-26.094;27.994;2023-08-17T11:10:34;35;32;
73973;PMS5003;62336;-26.094;27.994;2023-08-17T11:12:58;38;37;
73973;PMS5003;62336;-26.094;27.994;2023-08-17T11:15:24;32;31;
73973;PMS5003;62336;-26.094;27.994;2023-08-17T11:17:50;35;32;
73973;PMS5003;62336;-26.094;27.994;2023-08-17T11:20:15;33;32;
73973;PMS5003;62336;-26.094;27.994;2023-08-17T11:22:40;34;32;
73973;PMS5003;62336;-26.094;27.994;2023-08-17T11:25:06;33;31;
73973;PMS5003;62336;-26.094;27.994;2023-08-17T11:27:31;37;34;
73973;PMS5003;62336;-26.094;27.994;2023-08-17T11:29:56;33;31;
73973;PMS5003;62336;-26.094;27.994;2023-08-17T11:32:21;33;33;
73973;PMS5003;62336;-26.094;27.994;2023-08-17T11:34:47;34;33;
73973;PMS5003;62336;-26.094;27.994;2023-08-17T11:37:12;31;29;
73973;PMS5003;62336;-26.094;27.994;2023-08-17T11:39:38;31;30;
73973;PMS5003;62336;-26.094;27.994;2023-08-17T11:42:04;36;35;
73973;PMS5003;62336;-26.094;27.994;2023-08-17T11:44:29;35;32;
73973;PMS5003;62336;-26.094;27.994;2023-08-17T11:46:54;34;33;
73973;PMS5003;62336;-26.094;27.994;2023-08-17T11:49:19;30;29;
73973;PMS5003;62336;-26.094;27.994;2023-08-17T11:51:45;32;31;
73973;PMS5003;62336;-26.094;27.994;2023-08-17T11:54:11;32;31;
73973;PMS5003;62336;-26.094;27.994;2023-08-17T11:56:36;36;35;
73973;PMS5003;62336;-26.094;27.994;2023-08-17T12:01:32;34;33;
73973;PMS5003;62336;-26.094;27.994;2023-08-17T12:03:53;35;30;
73973;PMS5003;62336;-26.094;27.994;2023-08-17T12:06:19;30;28;
73973;PMS5003;62336;-26.094;27.994;2023-08-17T12:08:45;32;31;
73973;PMS5003;62336;-26.094;27.994;2023-08-17T12:11:10;39;33;
73973;PMS5003;62336;-26.094;27.994;2023-08-17T12:13:35;31;29;
73973;PMS5003;62336;-26.094;27.994;2023-08-17T12:16:00;30;29;
73973;PMS5003;62336;-26.094;27.994;2023-08-17T12:18:25;31;28;
73973;PMS5003;62336;-26.094;27.994;2023-08-17T12:20:52;28;27;
73973;PMS5003;62336;-26.094;27.994;2023-08-17T12:23:17;28;28;
73973;PMS5003;62336;-26.094;27.994;2023-08-17T12:25:41;27;26;
73973;PMS5003;62336;-26.094;27.994;2023-08-17T12:28:07;27;26;
73973;PMS5003;62336;-26.094;27.994;2023-08-17T12:30:31;29;27;
73973;PMS5003;62336;-26.094;27.994;2023-08-17T12:32:57;28;28;
73973;PMS5003;62336;-26.094;27.994;2023-08-17T12:35:23;25;24;
73973;PMS5003;62336;-26.094;27.994;2023-08-17T12:37:48;22;21;
73973;PMS5003;62336;-26.094;27.994;2023-08-17T12:40:14;31;28;
73973;PMS5003;62336;-26.094;27.994;2023-08-17T12:42:39;29;29;
73973;PMS5003;62336;-26.094;27.994;2023-08-17T12:45:05;29;27;
73973;PMS5003;62336;-26.094;27.994;2023-08-17T12:47:30;26;25;
73973;PMS5003;62336;-26.094;27.994;2023-08-17T12:49:56;26;25;
73973;PMS5003;62336;-26.094;27.994;2023-08-17T12:52:22;30;28;
73973;PMS5003;62336;-26.094;27.994;2023-08-17T12:54:47;29;27;
73973;PMS5003;62336;-26.094;27.994;2023-08-17T12:57:13;30;27;
73973;PMS5003;62336;-26.094;27.994;2023-08-17T12:59:38;28;26;
73973;PMS5003;62336;-26.094;27.994;2023-08-17T13:02:03;27;27;
73973;PMS5003;62336;-26.094;27.994;2023-08-17T13:04:28;32;30;
73973;PMS5003;62336;-26.094;27.994;2023-08-17T13:06:54;26;25;
73973;PMS5003;62336;-26.094;27.994;2023-08-17T13:09:19;23;23;
73973;PMS5003;62336;-26.094;27.994;2023-08-17T13:11:45;26;25;
73973;PMS5003;62336;-26.094;27.994;2023-08-17T13:14:10;29;27;
73973;PMS5003;62336;-26.094;27.994;2023-08-17T13:16:35;27;24;
73973;PMS5003;62336;-26.094;27.994;2023-08-17T13:19:01;25;22;
73973;PMS5003;62336;-26.094;27.994;2023-08-17T13:21:26;25;23;
73973;PMS5003;62336;-26.094;27.994;2023-08-17T13:23:51;23;22;
73973;PMS5003;62336;-26.094;27.994;2023-08-17T13:26:17;26;25;
73973;PMS5003;62336;-26.094;27.994;2023-08-17T13:28:42;23;22;
73973;PMS5003;62336;-26.094;27.994;2023-08-17T13:31:08;28;26;
73973;PMS5003;62336;-26.094;27.994;2023-08-17T13:33:33;25;25;
73973;PMS5003;62336;-26.094;27.994;2023-08-17T13:35:59;23;22;
73973;PMS5003;62336;-26.094;27.994;2023-08-17T13:38:24;23;23;
73973;PMS5003;62336;-26.094;27.994;2023-08-17T13:40:49;21;20;
73973;PMS5003;62336;-26.094;27.994;2023-08-17T13:43:15;31;25;
73973;PMS5003;62336;-26.094;27.994;2023-08-17T13:45:40;22;22;
73973;PMS5003;62336;-26.094;27.994;2023-08-17T13:48:06;26;26;
73973;PMS5003;62336;-26.094;27.994;2023-08-17T13:50:31;25;24;
73973;PMS5003;62336;-26.094;27.994;2023-08-17T13:52:57;26;25;
73973;PMS5003;62336;-26.094;27.994;2023-08-17T13:55:22;24;23;
73973;PMS5003;62336;-26.094;27.994;2023-08-17T13:57:48;28;27;
73973;PMS5003;62336;-26.094;27.994;2023-08-17T14:05:05;30;29;
73973;PMS5003;62336;-26.094;27.994;2023-08-17T14:07:30;30;26;
73973;PMS5003;62336;-26.094;27.994;2023-08-17T14:09:55;25;24;
73973;PMS5003;62336;-26.094;27.994;2023-08-17T14:12:20;24;22;
73973;PMS5003;62336;-26.094;27.994;2023-08-17T14:14:46;26;24;
73973;PMS5003;62336;-26.094;27.994;2023-08-17T14:17:12;24;23;
73973;PMS5003;62336;-26.094;27.994;2023-08-17T14:19:37;24;23;
73973;PMS5003;62336;-26.094;27.994;2023-08-17T14:22:02;26;25;
73973;PMS5003;62336;-26.094;27.994;2023-08-17T14:24:28;24;22;
73973;PMS5003;62336;-26.094;27.994;2023-08-17T14:26:53;30;27;
73973;PMS5003;62336;-26.094;27.994;2023-08-17T14:29:19;24;23;
73973;PMS5003;62336;-26.094;27.994;2023-08-17T14:31:44;31;28;
73973;PMS5003;62336;-26.094;27.994;2023-08-17T14:34:09;30;29;
73973;PMS5003;62336;-26.094;27.994;2023-08-17T14:36:34;25;25;
73973;PMS5003;62336;-26.094;27.994;2023-08-17T14:38:59;26;25;
73973;PMS5003;62336;-26.094;27.994;2023-08-17T14:41:25;28;27;
73973;PMS5003;62336;-26.094;27.994;2023-08-17T14:43:50;26;24;
73973;PMS5003;62336;-26.094;27.994;2023-08-17T14:46:16;25;25;
73973;PMS5003;62336;-26.094;27.994;2023-08-17T14:48:41;28;27;
73973;PMS5003;62336;-26.094;27.994;2023-08-17T14:51:06;25;24;
73973;PMS5003;62336;-26.094;27.994;2023-08-17T14:53:32;27;26;
73973;PMS5003;62336;-26.094;27.994;2023-08-17T14:55:57;26;26;
73973;PMS5003;62336;-26.094;27.994;2023-08-17T14:58:23;29;27;
73973;PMS5003;62336;-26.094;27.994;2023-08-17T15:00:48;24;24;
73973;PMS5003;62336;-26.094;27.994;2023-08-17T15:03:14;27;27;
73973;PMS5003;62336;-26.094;27.994;2023-08-17T15:05:39;27;27;
73973;PMS5003;62336;-26.094;27.994;2023-08-17T15:08:05;29;27;
73973;PMS5003;62336;-26.094;27.994;2023-08-17T15:10:30;31;31;
73973;PMS5003;62336;-26.094;27.994;2023-08-17T15:12:55;26;26;
73973;PMS5003;62336;-26.094;27.994;2023-08-17T15:15:20;27;26;
73973;PMS5003;62336;-26.094;27.994;2023-08-17T15:17:46;31;29;
73973;PMS5003;62336;-26.094;27.994;2023-08-17T15:20:11;26;26;
73973;PMS5003;62336;-26.094;27.994;2023-08-17T15:22:36;29;29;
73973;PMS5003;62336;-26.094;27.994;2023-08-17T15:25:03;31;31;
73973;PMS5003;62336;-26.094;27.994;2023-08-17T15:27:27;35;28;
73973;PMS5003;62336;-26.094;27.994;2023-08-17T15:29:53;31;30;
73973;PMS5003;62336;-26.094;27.994;2023-08-17T15:32:18;34;34;
73973;PMS5003;62336;-26.094;27.994;2023-08-17T15:34:43;32;31;
73973;PMS5003;62336;-26.094;27.994;2023-08-17T15:37:09;36;36;
73973;PMS5003;62336;-26.094;27.994;2023-08-17T15:39:34;32;31;
73973;PMS5003;62336;-26.094;27.994;2023-08-17T15:41:59;42;40;
73973;PMS5003;62336;-26.094;27.994;2023-08-17T15:44:24;49;43;